Villa Mizei, Puerto Rico
Current Conditions -  °F | °C
As of 7:50 AM on Monday 26 Jan 2015 (Local Time) from TJBQ Reporting Station
Clear Clear  
Wind Chill: 68°   Ceiling: Unl
Heat Index: 68°   Visibility: 10mi
Dew Point: 63°   Wind: 6mph
Humidity: 83%   Direction: 140°SE
Pressure: 30.01"   Gusts: NA
Location:  18.4951°N, 67.0273°W
Report Text: TJBQ 261150Z 14005KT 10SM SKC 20/17 A3001 RMK RWY 8 ATIS D
Loading
Personal Weather Stations






























Interactive Weather Map New forecast layout! Learn more

10-Day Weather Forecast

Advertisements
Track Severe Weather on mobile